createdAt,value
2018-04-23T00:00:16.249Z,61.80
2018-04-23T00:02:44.517Z,62.80
2018-04-23T00:05:12.952Z,62.80
2018-04-23T00:07:40.468Z,62.70
2018-04-23T00:10:08.873Z,63.10
2018-04-23T00:12:37.387Z,63.10
2018-04-23T00:15:04.899Z,63.70
2018-04-23T00:17:51.189Z,63.90
2018-04-23T00:20:18.709Z,63.60
2018-04-23T00:22:46.244Z,63.90
2018-04-23T00:25:13.740Z,63.80
2018-04-23T00:27:43.286Z,64.70
2018-04-23T00:30:10.845Z,63.90
2018-04-23T00:32:39.124Z,63.00
2018-04-23T00:35:07.631Z,62.90
2018-04-23T00:37:35.954Z,62.80
2018-04-23T00:40:04.525Z,62.80
2018-04-23T00:42:51.113Z,62.70
2018-04-23T00:45:19.625Z,62.40
2018-04-23T00:47:47.141Z,62.30
2018-04-23T00:50:15.434Z,63.40
2018-04-23T00:52:43.711Z,64.90
2018-04-23T00:55:12.009Z,65.80
2018-04-23T00:57:39.522Z,65.80
2018-04-23T01:00:07.129Z,65.20
2018-04-23T01:02:35.617Z,64.80
2018-04-23T01:05:03.709Z,65.60
2018-04-23T01:07:31.237Z,66.10
2018-04-23T01:09:58.735Z,65.90
2018-04-23T01:12:26.397Z,64.90
2018-04-23T01:14:53.919Z,63.90
2018-04-23T01:17:21.963Z,64.40
2018-04-23T01:19:49.688Z,64.30
2018-04-23T01:22:19.612Z,63.60
2018-04-23T01:24:47.123Z,63.50
2018-04-23T01:27:15.564Z,64.30
2018-04-23T01:29:43.121Z,65.10
2018-04-23T01:32:12.465Z,65.30
2018-04-23T01:34:40.019Z,65.20
2018-04-23T01:37:26.245Z,64.70
2018-04-23T01:39:53.759Z,65.00
2018-04-23T01:42:22.228Z,64.90
2018-04-23T01:44:49.772Z,65.10
2018-04-23T01:47:18.162Z,66.10
2018-04-23T01:49:46.462Z,64.90
2018-04-23T01:52:14.024Z,64.80
2018-04-23T01:54:41.543Z,64.80
2018-04-23T01:57:09.138Z,64.40
2018-04-23T01:59:37.417Z,65.10
2018-04-23T02:02:06.667Z,64.50
2018-04-23T02:04:34.252Z,64.30
2018-04-23T02:07:01.842Z,64.00
2018-04-23T02:09:31.033Z,63.90
2018-04-23T02:11:58.635Z,64.40
2018-04-23T02:14:27.836Z,63.50
2018-04-23T02:16:56.104Z,63.20
2018-04-23T02:19:24.384Z,63.80
2018-04-23T02:21:52.721Z,64.00
2018-04-23T02:24:20.257Z,63.90
2018-04-23T02:26:47.791Z,63.40
2018-04-23T02:29:17.976Z,64.60
2018-04-23T02:31:45.560Z,64.40
2018-04-23T02:34:13.169Z,62.30
2018-04-23T02:36:40.744Z,64.10
2018-04-23T02:39:08.359Z,62.50
2018-04-23T02:41:35.954Z,61.70
2018-04-23T02:44:22.401Z,62.00
2018-04-23T02:46:50.930Z,61.80
2018-04-23T02:49:19.270Z,61.30
2018-04-23T02:51:48.808Z,61.30
2018-04-23T02:54:16.414Z,61.80
2018-04-23T02:56:44.078Z,63.00
2018-04-23T02:59:11.606Z,63.30
2018-04-23T03:01:39.173Z,62.90
2018-04-23T03:04:06.762Z,61.50
2018-04-23T03:06:34.278Z,63.90
2018-04-23T03:09:01.810Z,62.10
2018-04-23T03:11:29.334Z,62.20
2018-04-23T03:13:56.904Z,62.10
2018-04-23T03:16:24.526Z,62.20
2018-04-23T03:19:09.978Z,63.30
2018-04-23T03:21:38.519Z,63.30
2018-04-23T03:24:06.059Z,63.80
2018-04-23T03:26:34.468Z,64.20
2018-04-23T03:29:02.010Z,64.20
2018-04-23T03:31:30.332Z,65.10
2018-04-23T03:33:59.581Z,65.00
2018-04-23T03:36:27.089Z,65.00
2018-04-23T03:38:54.623Z,65.90
2018-04-23T03:41:22.207Z,66.00
2018-04-23T03:43:49.727Z,67.40
2018-04-23T03:46:17.994Z,67.40
2018-04-23T03:48:45.514Z,67.00
2018-04-23T03:51:13.950Z,68.00
2018-04-23T03:53:41.506Z,68.00
2018-04-23T03:56:10.970Z,67.20
2018-04-23T03:58:38.502Z,65.20
2018-04-23T04:01:06.001Z,64.10
2018-04-23T04:03:33.599Z,66.00
2018-04-23T04:06:01.173Z,65.70
2018-04-23T04:08:28.687Z,65.70
2018-04-23T04:11:00.197Z,64.80
2018-04-23T04:13:39.515Z,65.20
2018-04-23T04:16:19.269Z,65.10
2018-04-23T04:18:46.768Z,65.10
2018-04-23T04:21:33.197Z,64.40
2018-04-23T04:26:43.070Z,65.20
2018-04-23T04:29:12.272Z,68.40
2018-04-23T04:31:40.532Z,67.30
2018-04-23T04:34:08.176Z,67.30
2018-04-23T04:36:36.523Z,68.10
2018-04-23T04:39:04.808Z,68.10
2018-04-23T04:41:32.325Z,69.00
2018-04-23T04:43:59.831Z,69.70
2018-04-23T04:46:28.352Z,69.10
2018-04-23T04:48:55.865Z,70.50
2018-04-23T04:51:23.399Z,68.10
2018-04-23T04:53:52.828Z,68.10
2018-04-23T04:56:39.866Z,68.20
2018-04-23T04:59:07.376Z,68.20
2018-04-23T05:04:14.161Z,68.30
2018-04-23T05:06:42.728Z,68.50
2018-04-23T05:09:10.253Z,67.50
2018-04-23T05:11:39.457Z,68.80
2018-04-23T05:14:07.751Z,68.80
2018-04-23T05:16:35.316Z,68.80
2018-04-23T05:19:02.892Z,69.30
2018-04-23T05:21:31.299Z,68.70
2018-04-23T05:23:59.744Z,68.80
2018-04-23T05:26:27.418Z,68.80
2018-04-23T05:28:54.962Z,68.80
2018-04-23T05:31:23.402Z,69.70
2018-04-23T05:34:09.618Z,69.60
2018-04-23T05:36:38.098Z,69.00
2018-04-23T05:39:07.584Z,67.60
2018-04-23T05:41:35.107Z,70.10
2018-04-23T05:44:03.602Z,70.90
2018-04-23T05:46:31.199Z,73.80
2018-04-23T05:51:55.737Z,77.30
2018-04-23T05:54:24.200Z,72.30
2018-04-23T05:56:52.660Z,71.90
2018-04-23T05:59:21.098Z,71.80
2018-04-23T06:01:49.382Z,71.80
2018-04-23T06:04:17.652Z,74.40
2018-04-23T06:06:45.940Z,74.30
2018-04-23T06:09:13.474Z,71.30
2018-04-23T06:11:41.024Z,74.20
2018-04-23T06:14:08.580Z,75.20
2018-04-23T06:16:37.097Z,76.80
2018-04-23T06:19:04.753Z,74.30
2018-04-23T06:21:34.241Z,76.30
2018-04-23T06:24:01.857Z,71.90
2018-04-23T06:26:30.137Z,72.90
2018-04-23T06:28:58.398Z,72.10
2018-04-23T06:31:25.976Z,72.10
2018-04-23T06:33:57.215Z,69.20
2018-04-23T06:36:24.773Z,69.20
2018-04-23T06:38:53.320Z,70.20
2018-04-23T06:41:20.882Z,68.10
2018-04-23T06:43:48.402Z,69.30
2018-04-23T06:46:15.952Z,69.40
2018-04-23T06:48:43.457Z,70.00
2018-04-23T06:51:11.185Z,70.10
2018-04-23T06:53:39.593Z,71.90
2018-04-23T06:56:08.874Z,68.10
2018-04-23T06:58:36.412Z,68.00
2018-04-23T07:01:04.025Z,69.60
2018-04-23T07:03:34.238Z,66.80
2018-04-23T07:06:01.808Z,66.80
2018-04-23T07:08:30.317Z,70.50
2018-04-23T07:10:59.522Z,69.70
2018-04-23T07:13:27.219Z,69.80
2018-04-23T07:15:54.796Z,68.20
2018-04-23T07:18:22.386Z,62.70
2018-04-23T07:20:49.953Z,62.00
2018-04-23T07:23:17.488Z,64.60
2018-04-23T07:25:45.951Z,61.90
2018-04-23T07:28:31.358Z,62.80
2018-04-23T07:30:58.858Z,62.70
2018-04-23T07:33:27.162Z,63.90
2018-04-23T07:35:54.711Z,63.90
2018-04-23T07:38:24.293Z,61.20
2018-04-23T07:43:32.180Z,62.00
2018-04-23T07:45:59.842Z,62.70
2018-04-23T07:48:28.273Z,61.90
2018-04-23T07:50:55.818Z,61.40
2018-04-23T07:53:23.321Z,60.10
2018-04-23T07:55:51.673Z,61.90
2018-04-23T07:58:19.193Z,61.90
2018-04-23T08:00:46.718Z,60.40
2018-04-23T08:03:14.244Z,60.00
2018-04-23T08:05:43.744Z,59.70
2018-04-23T08:08:11.264Z,59.60
2018-04-23T08:10:39.549Z,66.60
2018-04-23T08:13:07.827Z,67.00
2018-04-23T08:15:35.367Z,67.00
2018-04-23T08:18:02.902Z,64.50
2018-04-23T08:20:30.414Z,63.50
2018-04-23T08:22:57.962Z,65.60
2018-04-23T08:25:25.559Z,65.60
2018-04-23T08:27:53.801Z,66.70
2018-04-23T08:30:22.326Z,66.60
2018-04-23T08:32:50.840Z,69.40
2018-04-23T08:35:18.382Z,66.40
2018-04-23T08:37:46.844Z,65.90
2018-04-23T08:40:15.114Z,66.50
2018-04-23T08:42:43.679Z,66.40
2018-04-23T08:45:11.244Z,66.50
2018-04-23T08:47:38.961Z,67.80
2018-04-23T08:50:06.513Z,65.70
2018-04-23T08:52:34.823Z,59.40
2018-04-23T08:55:02.423Z,59.30
2018-04-23T08:57:47.791Z,62.00
2018-04-23T09:00:15.310Z,64.40
2018-04-23T09:05:24.831Z,61.50
2018-04-23T09:07:52.374Z,61.20
2018-04-23T09:10:21.823Z,62.00
2018-04-23T09:12:50.113Z,60.20
2018-04-23T09:15:18.760Z,59.30
2018-04-23T09:17:46.443Z,59.30
2018-04-23T09:20:13.944Z,56.70
2018-04-23T09:22:41.534Z,57.10
2018-04-23T09:25:09.138Z,60.80
2018-04-23T09:27:36.674Z,60.40
2018-04-23T09:30:04.827Z,62.10
2018-04-23T09:32:32.336Z,57.80
2018-04-23T09:34:59.912Z,55.50
2018-04-23T09:37:27.559Z,56.20
2018-04-23T09:39:56.989Z,60.40
2018-04-23T09:42:24.575Z,55.80
2018-04-23T09:44:52.161Z,57.20
2018-04-23T09:47:19.663Z,60.00
2018-04-23T09:49:47.222Z,54.80
2018-04-23T09:52:14.727Z,58.70
2018-04-23T09:54:43.015Z,56.20
2018-04-23T09:57:10.614Z,56.30
2018-04-23T09:59:38.954Z,59.10
2018-04-23T10:02:07.269Z,61.10
2018-04-23T10:04:34.781Z,61.10
2018-04-23T10:07:02.296Z,58.30
2018-04-23T10:09:29.850Z,55.20
2018-04-23T10:11:57.388Z,56.40
2018-04-23T10:14:25.019Z,51.50
2018-04-23T10:16:53.318Z,55.20
2018-04-23T10:19:20.977Z,55.40
2018-04-23T10:21:48.521Z,54.50
2018-04-23T10:24:16.098Z,51.70
2018-04-23T10:26:43.681Z,56.30
2018-04-23T10:29:11.292Z,58.30
2018-04-23T10:31:38.827Z,54.10
2018-04-23T10:34:07.123Z,60.60
2018-04-23T10:36:34.851Z,60.60
2018-04-23T10:39:20.986Z,59.40
2018-04-23T10:41:48.556Z,55.40
2018-04-23T10:44:16.120Z,60.20
2018-04-23T10:46:43.686Z,59.50
2018-04-23T10:49:11.251Z,57.90
2018-04-23T10:51:38.907Z,60.10
2018-04-23T10:54:06.481Z,57.60
2018-04-23T10:56:34.887Z,57.20
2018-04-23T10:59:02.410Z,61.00
2018-04-23T11:01:29.969Z,59.50
2018-04-23T11:03:57.509Z,52.90
2018-04-23T11:06:25.024Z,54.00
2018-04-23T11:08:52.674Z,58.50
2018-04-23T11:11:20.348Z,54.10
2018-04-23T11:13:47.865Z,56.60
2018-04-23T11:16:15.633Z,53.30
2018-04-23T11:18:43.199Z,55.20
2018-04-23T11:21:10.703Z,54.90
2018-04-23T11:23:38.267Z,50.70
2018-04-23T11:26:06.658Z,49.20
2018-04-23T11:28:34.200Z,49.20
2018-04-23T11:31:03.470Z,52.70
2018-04-23T11:33:49.798Z,52.10
2018-04-23T11:36:17.420Z,49.80
2018-04-23T11:38:45.064Z,56.00
2018-04-23T11:41:12.632Z,49.70
2018-04-23T11:43:40.136Z,53.80
2018-04-23T11:46:08.463Z,50.20
2018-04-23T11:48:36.036Z,50.20
2018-04-23T11:51:03.648Z,53.40
2018-04-23T11:53:31.250Z,50.40
2018-04-23T11:55:59.539Z,52.30
2018-04-23T11:58:27.097Z,52.20
2018-04-23T12:00:54.680Z,50.40
2018-04-23T12:03:24.165Z,51.30
2018-04-23T12:05:52.438Z,53.60
2018-04-23T12:08:20.763Z,49.40
2018-04-23T12:10:48.374Z,49.40
2018-04-23T12:13:16.040Z,50.80
2018-04-23T12:15:43.562Z,52.50
2018-04-23T12:18:11.071Z,50.70
2018-04-23T12:20:39.391Z,49.40
2018-04-23T12:23:07.019Z,49.00
2018-04-23T12:25:34.577Z,51.90
2018-04-23T12:28:02.120Z,51.00
2018-04-23T12:30:30.620Z,50.80
2018-04-23T12:32:58.138Z,53.00
2018-04-23T12:35:25.668Z,52.70
2018-04-23T12:37:53.231Z,45.20
2018-04-23T12:40:22.425Z,49.40
2018-04-23T12:42:50.026Z,49.20
2018-04-23T12:45:17.571Z,52.80
2018-04-23T12:47:45.840Z,48.40
2018-04-23T12:50:13.460Z,48.20
2018-04-23T12:52:41.008Z,49.70
2018-04-23T12:55:08.580Z,52.70
2018-04-23T12:57:36.125Z,52.90
2018-04-23T13:00:03.739Z,52.60
2018-04-23T13:02:31.277Z,52.10
2018-04-23T13:04:58.789Z,58.60
2018-04-23T13:07:26.371Z,56.80
2018-04-23T13:09:55.594Z,59.00
2018-04-23T13:12:24.110Z,58.90
2018-04-23T13:14:52.588Z,59.00
2018-04-23T13:17:21.259Z,60.50
2018-04-23T13:19:48.906Z,62.40
2018-04-23T13:22:16.459Z,60.90
2018-04-23T13:24:44.737Z,60.20
2018-04-23T13:27:12.302Z,60.00
2018-04-23T13:29:40.620Z,59.90
2018-04-23T13:32:08.190Z,59.80
2018-04-23T13:34:35.726Z,59.10
2018-04-23T13:37:04.033Z,58.60
2018-04-23T13:39:31.579Z,58.30
2018-04-23T13:41:59.193Z,57.80
2018-04-23T13:44:27.511Z,61.60
2018-04-23T13:46:55.082Z,61.50
2018-04-23T13:49:22.653Z,58.90
2018-04-23T13:51:50.226Z,59.90
2018-04-23T13:54:17.762Z,59.10
2018-04-23T13:56:45.388Z,59.80
2018-04-23T13:59:12.966Z,61.10
2018-04-23T14:01:40.481Z,60.90
2018-04-23T14:04:08.018Z,63.00
2018-04-23T14:06:35.543Z,63.70
2018-04-23T14:09:04.121Z,62.30
2018-04-23T14:11:32.463Z,61.20
2018-04-23T14:14:00.731Z,62.80
2018-04-23T14:16:29.205Z,62.70
2018-04-23T14:18:56.732Z,64.00
2018-04-23T14:21:25.248Z,59.60
2018-04-23T14:23:53.718Z,60.80
2018-04-23T14:26:22.395Z,61.90
2018-04-23T14:28:51.997Z,56.80
2018-04-23T14:31:19.545Z,58.30
2018-04-23T14:34:05.752Z,58.80
2018-04-23T14:39:14.488Z,59.40
2018-04-23T14:41:42.905Z,57.10
2018-04-23T14:44:10.436Z,61.40
2018-04-23T14:46:37.999Z,64.80
2018-04-23T14:49:05.516Z,65.90
2018-04-23T14:51:33.749Z,66.30
2018-04-23T14:54:01.267Z,69.90
2018-04-23T14:56:29.738Z,69.10
2018-04-23T14:58:58.278Z,68.60
2018-04-23T15:01:25.812Z,69.10
2018-04-23T15:03:53.456Z,71.40
2018-04-23T15:06:21.064Z,70.10
2018-04-23T15:08:48.564Z,69.90
2018-04-23T15:11:16.090Z,70.50
2018-04-23T15:13:43.576Z,67.00
2018-04-23T15:16:11.156Z,67.10
2018-04-23T15:18:38.974Z,64.60
2018-04-23T15:21:07.314Z,65.00
2018-04-23T15:23:34.950Z,65.20
2018-04-23T15:26:02.522Z,63.50
2018-04-23T15:28:30.085Z,62.30
2018-04-23T15:30:57.678Z,63.50
2018-04-23T15:33:26.133Z,65.30
2018-04-23T15:35:53.730Z,64.80
2018-04-23T15:38:21.205Z,66.50
2018-04-23T15:40:48.767Z,66.50
2018-04-23T15:43:17.210Z,67.10
2018-04-23T15:45:44.718Z,66.90
2018-04-23T15:48:12.244Z,67.80
2018-04-23T15:50:39.795Z,67.40
2018-04-23T15:53:08.363Z,69.80
2018-04-23T15:55:37.568Z,70.60
2018-04-23T15:58:05.843Z,71.00
2018-04-23T16:00:34.171Z,69.00
2018-04-23T16:03:01.720Z,69.00
2018-04-23T16:05:29.340Z,68.10
2018-04-23T16:07:56.854Z,70.10
2018-04-23T16:10:24.494Z,70.60
2018-04-23T16:12:52.764Z,70.10
2018-04-23T16:15:21.052Z,70.60
2018-04-23T16:17:48.681Z,70.60
2018-04-23T16:20:17.138Z,68.60
2018-04-23T16:22:45.656Z,69.40
2018-04-23T16:25:13.269Z,72.60
2018-04-23T16:27:40.783Z,72.10
2018-04-23T16:30:08.389Z,74.10
2018-04-23T16:32:36.777Z,78.10
2018-04-23T16:35:04.431Z,79.40
2018-04-23T16:37:32.014Z,84.20
2018-04-23T16:39:59.576Z,87.30
2018-04-23T16:42:27.192Z,90.60
2018-04-23T16:44:54.774Z,92.30
2018-04-23T16:47:22.325Z,94.30
2018-04-23T16:49:49.991Z,96.30
2018-04-23T16:52:18.326Z,99.30
2018-04-23T16:54:46.857Z,99.20
2018-04-23T16:57:14.419Z,99.90
2018-04-23T16:59:44.965Z,99.90
2018-04-23T17:02:12.539Z,99.90
2018-04-23T17:04:40.087Z,99.90
2018-04-23T17:07:07.715Z,99.90
2018-04-23T17:09:35.247Z,99.90
2018-04-23T17:12:02.840Z,99.90
2018-04-23T17:14:30.466Z,99.90
2018-04-23T17:16:58.005Z,99.90
2018-04-23T17:19:25.662Z,99.90
2018-04-23T17:21:53.162Z,99.90
2018-04-23T17:24:20.684Z,99.90
2018-04-23T17:26:48.224Z,99.90
2018-04-23T17:29:15.795Z,99.90
2018-04-23T17:31:43.385Z,99.90
2018-04-23T17:34:11.722Z,99.90
2018-04-23T17:36:40.196Z,99.90
2018-04-23T17:39:08.507Z,99.90
2018-04-23T17:41:36.071Z,99.90
2018-04-23T17:44:03.705Z,99.90
2018-04-23T17:46:32.001Z,99.90
2018-04-23T17:49:00.266Z,99.90
2018-04-23T17:51:28.580Z,99.90
2018-04-23T17:53:57.025Z,99.90
2018-04-23T17:56:24.598Z,99.90
2018-04-23T17:58:53.007Z,99.90
2018-04-23T18:01:25.519Z,99.90
2018-04-23T18:03:53.084Z,99.90
2018-04-23T18:06:20.733Z,99.90
2018-04-23T18:08:48.263Z,99.90
2018-04-23T18:11:17.456Z,99.90
2018-04-23T18:13:44.997Z,99.90
2018-04-23T18:16:12.523Z,99.90
2018-04-23T18:18:41.064Z,99.90
2018-04-23T18:21:08.674Z,99.90
2018-04-23T18:23:36.224Z,99.90
2018-04-23T18:26:04.508Z,99.90
2018-04-23T18:28:32.095Z,99.90
2018-04-23T18:31:00.431Z,99.90
2018-04-23T18:33:27.986Z,99.90
2018-04-23T18:35:55.512Z,99.90
2018-04-23T18:38:23.095Z,99.90
2018-04-23T18:40:50.597Z,99.90
2018-04-23T18:43:18.846Z,99.90
2018-04-23T18:45:46.422Z,99.90
2018-04-23T18:48:14.890Z,99.90
2018-04-23T18:50:42.645Z,99.90
2018-04-23T18:53:10.092Z,99.90
2018-04-23T18:55:37.644Z,99.90
2018-04-23T18:58:05.790Z,99.90
2018-04-23T19:00:33.417Z,99.90
2018-04-23T19:03:00.998Z,99.90
2018-04-23T19:05:28.533Z,99.90
2018-04-23T19:07:58.002Z,99.90
2018-04-23T19:10:28.318Z,99.90
2018-04-23T19:12:57.601Z,99.90
2018-04-23T19:15:25.209Z,99.90
2018-04-23T19:17:53.491Z,99.90
2018-04-23T19:20:21.316Z,99.90
2018-04-23T19:22:48.865Z,99.90
2018-04-23T19:25:17.219Z,99.90
2018-04-23T19:27:44.858Z,99.90
2018-04-23T19:30:14.164Z,99.90
2018-04-23T19:32:41.741Z,99.90
2018-04-23T19:35:09.322Z,99.90
2018-04-23T19:37:36.900Z,99.90
2018-04-23T19:40:04.487Z,99.90
2018-04-23T19:42:32.918Z,99.90
2018-04-23T19:45:02.145Z,99.90
2018-04-23T19:47:29.723Z,99.90
2018-04-23T19:49:58.175Z,99.90
2018-04-23T19:52:25.731Z,99.90
2018-04-23T19:54:54.054Z,99.90
2018-04-23T19:57:23.512Z,99.90
2018-04-23T19:59:51.971Z,99.90
2018-04-23T20:02:20.443Z,99.90
2018-04-23T20:04:47.947Z,99.90
2018-04-23T20:07:15.535Z,99.90
2018-04-23T20:09:43.805Z,99.90
2018-04-23T20:12:12.117Z,99.90
2018-04-23T20:14:39.704Z,99.90
2018-04-23T20:17:07.247Z,99.90
2018-04-23T20:19:34.819Z,99.90
2018-04-23T20:22:03.323Z,99.90
2018-04-23T20:24:30.924Z,99.90
2018-04-23T20:26:59.250Z,99.90
2018-04-23T20:29:26.784Z,99.90
2018-04-23T20:31:54.388Z,99.90
2018-04-23T20:34:21.971Z,99.90
2018-04-23T20:36:49.505Z,99.90
2018-04-23T20:39:17.046Z,99.90
2018-04-23T20:41:45.504Z,99.90
2018-04-23T20:44:13.159Z,99.90
2018-04-23T20:46:41.610Z,99.90
2018-04-23T20:49:11.078Z,99.90
2018-04-23T20:51:39.466Z,99.90
2018-04-23T20:54:07.087Z,99.90
2018-04-23T20:56:35.567Z,99.90
2018-04-23T20:59:03.159Z,99.90
2018-04-23T21:01:31.692Z,99.90
2018-04-23T21:03:59.268Z,99.90
2018-04-23T21:06:26.829Z,99.90
2018-04-23T21:08:55.266Z,99.90
2018-04-23T21:11:22.839Z,99.90
2018-04-23T21:13:51.325Z,99.90
2018-04-23T21:16:20.260Z,99.90
2018-04-23T21:19:06.517Z,99.90
2018-04-23T21:21:34.806Z,99.90
2018-04-23T21:26:44.102Z,99.90
2018-04-23T21:29:11.685Z,99.90
2018-04-23T21:31:39.204Z,99.90
2018-04-23T21:34:06.706Z,99.90
2018-04-23T21:36:34.216Z,99.90
2018-04-23T21:39:01.790Z,99.90
2018-04-23T21:41:30.164Z,99.90
2018-04-23T21:43:57.659Z,99.90
2018-04-23T21:46:25.219Z,99.90
2018-04-23T21:48:52.820Z,99.90
2018-04-23T21:51:20.334Z,99.90
2018-04-23T21:53:47.861Z,99.90
2018-04-23T21:56:16.880Z,99.90
2018-04-23T21:58:44.423Z,99.90
2018-04-23T22:01:12.025Z,99.90
2018-04-23T22:03:39.532Z,99.90
2018-04-23T22:06:07.191Z,99.90
2018-04-23T22:08:35.620Z,99.90
2018-04-23T22:11:03.892Z,99.90
2018-04-23T22:13:33.103Z,99.90
2018-04-23T22:16:01.392Z,99.90
2018-04-23T22:18:28.981Z,99.90
2018-04-23T22:20:56.537Z,99.90
2018-04-23T22:23:24.053Z,99.90
2018-04-23T22:25:51.677Z,99.90
2018-04-23T22:28:19.201Z,99.90
2018-04-23T22:30:47.510Z,99.90
2018-04-23T22:33:15.077Z,99.90
2018-04-23T22:35:42.663Z,99.90
2018-04-23T22:38:10.198Z,99.90
2018-04-23T22:40:37.721Z,99.90
2018-04-23T22:43:06.203Z,99.90
2018-04-23T22:45:34.936Z,99.90
2018-04-23T22:48:02.439Z,99.90
2018-04-23T22:50:30.005Z,99.90
2018-04-23T22:52:57.585Z,99.90
2018-04-23T22:55:25.116Z,99.90
2018-04-23T22:57:53.654Z,99.90
2018-04-23T23:00:21.208Z,99.90
2018-04-23T23:02:50.073Z,99.90
2018-04-23T23:05:18.423Z,99.90
2018-04-23T23:07:46.682Z,99.90
2018-04-23T23:10:14.956Z,99.90
2018-04-23T23:12:43.242Z,99.90
2018-04-23T23:15:10.866Z,99.90
2018-04-23T23:17:38.360Z,99.90
2018-04-23T23:20:05.935Z,99.90
2018-04-23T23:22:33.445Z,99.90
2018-04-23T23:25:00.947Z,99.90
2018-04-23T23:27:28.584Z,99.90
2018-04-23T23:29:56.802Z,99.90
2018-04-23T23:32:24.356Z,99.90
2018-04-23T23:34:51.919Z,99.90
2018-04-23T23:37:19.435Z,99.90
2018-04-23T23:39:47.043Z,99.90
2018-04-23T23:42:16.550Z,99.90
2018-04-23T23:44:44.088Z,99.90
2018-04-23T23:47:11.588Z,99.90
2018-04-23T23:49:39.125Z,99.90
2018-04-23T23:52:25.350Z,99.90
2018-04-23T23:54:52.878Z,99.90
